Time;durP1;ratioP1;P1;durP2;ratioP2;P2;SDS_P1;SDS_P2;PMS_P1;PMS_P2;Temp;Humidity;BMP_temperature;BMP_pressure;BME280_temperature;BME280_humidity;BME280_pressure;Samples;Min_cycle;Max_cycle;Signal;HPM_P1;HPM_P2
2021/05/04 00:00:39;;;;;;;8.70;2.12;;;;;;;23.19;42.75;100809.47;143739;594;47009;-83
2021/05/04 00:03:06;;;;;;;8.60;2.00;;;;;;;23.09;43.12;100812.00;143739;591;47010;-77
2021/05/04 00:05:33;;;;;;;6.35;1.90;;;;;;;22.98;42.88;100802.16;143738;575;46030;-78
2021/05/04 00:08:00;;;;;;;10.55;1.90;;;;;;;22.94;42.30;100792.66;143738;574;46008;-77
2021/05/04 00:10:28;;;;;;;8.52;2.08;;;;;;;22.91;42.37;100792.87;143741;596;46008;-85
2021/05/04 00:12:55;;;;;;;10.82;1.98;;;;;;;22.81;42.54;100795.44;143739;636;47026;-87
2021/05/04 00:15:22;;;;;;;10.02;2.00;;;;;;;22.82;42.18;100792.63;143740;570;46010;-85
2021/05/04 00:17:49;;;;;;;9.63;1.90;;;;;;;22.80;42.17;100802.63;143740;592;46023;-84
2021/05/04 00:20:16;;;;;;;9.82;1.80;;;;;;;22.82;42.04;100792.63;143739;563;46020;-85
2021/05/04 00:22:43;;;;;;;11.15;2.00;;;;;;;22.85;41.97;100802.25;143740;583;47010;-84
2021/05/04 00:25:11;;;;;;;9.75;2.00;;;;;;;22.90;42.07;100799.22;143735;614;47021;-84
2021/05/04 00:27:38;;;;;;;8.65;2.20;;;;;;;22.92;41.46;100803.50;143739;695;46008;-86
2021/05/04 00:30:07;;;;;;;8.63;2.00;;;;;;;22.92;41.54;100805.31;143738;571;46020;-86
2021/05/04 00:32:34;;;;;;;8.73;1.98;;;;;;;22.87;41.37;100807.47;143741;576;46010;-87
2021/05/04 00:35:01;;;;;;;9.52;2.33;;;;;;;22.90;41.85;100812.63;143737;658;46022;-83
2021/05/04 00:37:28;;;;;;;13.32;2.20;;;;;;;22.96;41.43;100809.44;143739;614;46018;-87
2021/05/04 00:39:55;;;;;;;8.75;1.90;;;;;;;22.88;41.01;100807.38;143741;604;46010;-80
2021/05/04 00:42:24;;;;;;;10.27;1.98;;;;;;;22.88;41.43;100806.50;143739;625;46018;-80
2021/05/04 00:44:52;;;;;;;9.50;2.42;;;;;;;22.79;41.46;100819.66;143736;604;47040;-81
2021/05/04 00:47:20;;;;;;;7.12;1.75;;;;;;;22.88;41.18;100815.41;143740;576;46018;-89
2021/05/04 00:49:47;;;;;;;5.97;1.70;;;;;;;22.80;41.26;100826.72;143740;634;46020;-88
2021/05/04 00:52:14;;;;;;;13.13;2.30;;;;;;;22.72;41.14;100826.47;143742;618;47010;-88
2021/05/04 00:54:42;;;;;;;13.90;2.30;;;;;;;22.73;41.27;100836.19;143738;567;46010;-89
2021/05/04 00:57:11;;;;;;;10.77;1.70;;;;;;;22.71;40.78;100831.94;143738;566;46914;-88
2021/05/04 00:59:39;;;;;;;8.25;1.70;;;;;;;22.76;41.23;100843.97;143737;583;46020;-88
2021/05/04 01:02:06;;;;;;;8.63;2.03;;;;;;;22.67;40.61;100844.69;143737;688;47008;-87
2021/05/04 01:04:33;;;;;;;10.98;1.87;;;;;;;22.55;40.68;100838.44;143735;585;47045;-90
2021/05/04 01:07:00;;;;;;;13.57;2.10;;;;;;;22.48;40.98;100842.56;143739;569;46008;-86
2021/05/04 01:09:27;;;;;;;9.75;1.75;;;;;;;22.38;41.04;100842.41;143735;615;46021;-81
2021/05/04 01:11:55;;;;;;;11.70;2.00;;;;;;;22.30;41.72;100840.28;143739;602;47010;-82
2021/05/04 01:14:23;;;;;;;12.75;2.30;;;;;;;22.14;43.61;100840.59;143734;586;46020;-87
2021/05/04 01:16:53;;;;;;;7.85;2.30;;;;;;;22.06;44.02;100829.63;143738;749;46018;-88
2021/05/04 01:19:21;;;;;;;11.80;2.50;;;;;;;22.10;44.38;100828.44;143740;566;46020;-86
2021/05/04 01:21:49;;;;;;;13.77;2.30;;;;;;;22.04;44.52;100830.72;143741;574;46017;-87
2021/05/04 01:24:16;;;;;;;12.27;2.40;;;;;;;22.01;44.49;100834.47;143739;588;46010;-89
2021/05/04 01:26:46;;;;;;;10.32;2.03;;;;;;;22.06;44.77;100821.59;143740;682;46008;-86
2021/05/04 01:29:14;;;;;;;14.23;2.53;;;;;;;22.04;45.00;100820.84;143741;593;47010;-84
2021/05/04 01:31:42;;;;;;;14.30;2.10;;;;;;;22.02;44.65;100813.91;143739;587;46023;-81
2021/05/04 01:34:12;;;;;;;10.48;2.17;;;;;;;22.05;44.21;100803.84;143735;604;47010;-83
2021/05/04 01:36:40;;;;;;;17.33;2.22;;;;;;;22.03;42.97;100805.78;143739;574;46018;-84
2021/05/04 01:39:08;;;;;;;10.35;1.67;;;;;;;21.99;42.83;100804.31;143739;567;46020;-86
2021/05/04 01:41:37;;;;;;;12.70;1.90;;;;;;;21.96;42.67;100804.53;143739;629;46008;-86
2021/05/04 01:44:06;;;;;;;11.00;1.87;;;;;;;21.95;42.53;100793.00;143739;576;46020;-87
2021/05/04 01:46:33;;;;;;;11.65;1.92;;;;;;;22.05;42.04;100795.84;143739;588;46008;-86
2021/05/04 01:49:06;;;;;;;12.52;1.55;;;;;;;22.03;41.93;100799.59;143737;708;47010;-88
2021/05/04 01:51:34;;;;;;;;;;;;;;;22.01;42.08;100810.41;143744;981;47010;-88
2021/05/04 01:54:01;;;;;;;9.88;1.70;;;;;;;22.04;42.41;100806.66;143749;564;46915;-83
2021/05/04 01:56:29;;;;;;;11.82;1.90;;;;;;;22.09;42.37;100794.62;143738;571;46018;-90
2021/05/04 01:59:01;;;;;;;9.48;1.92;;;;;;;22.09;42.12;100799.97;143741;628;46010;-93
2021/05/04 02:01:28;;;;;;;8.93;1.90;;;;;;;21.99;42.52;100798.94;143740;575;47013;-90
2021/05/04 02:03:58;;;;;;;10.65;1.90;;;;;;;21.91;42.69;100804.88;143737;637;46018;-92
2021/05/04 02:06:25;;;;;;;11.00;1.80;;;;;;;21.90;42.33;100805.84;143741;564;46031;-91
2021/05/04 02:08:52;;;;;;;11.85;2.05;;;;;;;21.91;42.59;100815.59;143739;609;46010;-90
2021/05/04 02:11:37;;;;;;;8.77;1.87;;;;;;;21.97;42.50;100820.47;143743;588;46010;-91
2021/05/04 02:14:07;;;;;;;13.25;2.45;;;;;;;22.22;42.21;100829.31;143741;658;45906;-92
2021/05/04 02:16:36;;;;;;;11.15;2.00;;;;;;;22.30;41.84;100820.72;143738;652;46018;-90
2021/05/04 02:19:04;;;;;;;11.12;1.95;;;;;;;22.15;42.05;100826.25;143740;591;46012;-92
2021/05/04 02:21:32;;;;;;;8.93;1.90;;;;;;;22.01;41.98;100829.13;143741;617;46010;-90
2021/05/04 02:23:59;;;;;;;11.40;1.75;;;;;;;21.88;41.94;100833.66;143736;587;46018;-94
2021/05/04 02:26:26;;;;;;;9.32;1.65;;;;;;;21.77;41.92;100827.31;143740;571;46010;-87
2021/05/04 02:28:53;;;;;;;7.05;1.80;;;;;;;21.64;42.24;100821.16;143741;564;46011;-85
2021/05/04 02:31:20;;;;;;;7.22;1.67;;;;;;;21.55;42.34;100822.66;143739;596;46018;-81
2021/05/04 02:33:48;;;;;;;11.80;1.77;;;;;;;21.46;42.37;100825.97;143737;656;46012;-82
2021/05/04 02:36:15;;;;;;;10.20;2.10;;;;;;;21.37;42.62;100822.12;143738;608;46018;-82
2021/05/04 02:38:42;;;;;;;10.40;1.70;;;;;;;21.30;42.81;100840.41;143737;569;46025;-81
2021/05/04 02:41:10;;;;;;;9.88;1.80;;;;;;;21.23;42.91;100838.31;143739;602;46012;-82
2021/05/04 02:43:38;;;;;;;7.00;1.90;;;;;;;21.19;42.92;100850.16;143735;573;47020;-82
2021/05/04 02:46:07;;;;;;;7.75;1.77;;;;;;;21.19;42.89;100858.16;143737;659;46012;-81
2021/05/04 02:48:39;;;;;;;6.43;1.77;;;;;;;21.17;43.05;100860.06;143740;590;46020;-82
2021/05/04 02:51:09;;;;;;;12.30;2.03;;;;;;;21.13;42.72;100864.78;143741;571;46009;-83
2021/05/04 02:53:37;;;;;;;12.50;1.92;;;;;;;21.15;42.88;100868.19;143738;628;46023;-81
2021/05/04 02:56:06;;;;;;;9.50;1.90;;;;;;;21.17;42.86;100873.44;143738;635;46914;-83
2021/05/04 02:58:33;;;;;;;9.05;1.62;;;;;;;21.15;43.44;100878.88;143738;575;46020;-81
2021/05/04 03:01:01;;;;;;;8.75;1.58;;;;;;;21.16;42.69;100877.06;143740;583;47013;-83
2021/05/04 03:03:29;;;;;;;11.65;1.60;;;;;;;21.17;42.87;100884.94;143737;589;46018;-83
2021/05/04 03:05:56;;;;;;;8.93;1.65;;;;;;;21.06;43.38;100885.69;143740;573;46008;-78
2021/05/04 03:08:24;;;;;;;10.73;1.87;;;;;;;21.03;43.54;100899.25;143737;594;46021;-80
2021/05/04 03:10:51;;;;;;;12.05;2.08;;;;;;;21.04;43.64;100898.31;143738;590;47012;-80
2021/05/04 03:13:26;;;;;;;14.27;2.58;;;;;;;20.88;43.33;100862.97;143739;625;46012;-83
2021/05/04 03:15:53;;;;;;;9.20;1.90;;;;;;;21.05;43.63;100917.84;143739;593;46011;-82
2021/05/04 03:18:20;;;;;;;13.45;2.50;;;;;;;20.99;43.59;100920.94;143740;587;46010;-84
2021/05/04 03:20:49;;;;;;;11.52;1.55;;;;;;;20.99;43.74;100929.78;143740;574;47012;-85
2021/05/04 03:23:18;;;;;;;7.40;1.48;;;;;;;21.06;43.70;100939.09;143739;656;46013;-85
2021/05/04 03:25:46;;;;;;;10.70;1.75;;;;;;;21.06;43.96;100955.09;143738;624;46010;-83
2021/05/04 03:28:14;;;;;;;7.75;2.05;;;;;;;21.03;44.17;100962.47;143738;579;46020;-84
2021/05/04 03:30:41;;;;;;;16.12;1.70;;;;;;;21.02;44.26;100971.44;143743;612;46010;-86
2021/05/04 03:33:09;;;;;;;14.52;1.40;;;;;;;21.07;44.20;100982.66;143738;626;46022;-85
2021/05/04 03:35:36;;;;;;;12.60;2.20;;;;;;;21.12;43.94;100986.72;143739;660;47010;-86
2021/05/04 03:38:04;;;;;;;9.75;2.10;;;;;;;21.14;44.11;100991.97;143737;579;46010;-86
2021/05/04 03:40:32;;;;;;;12.10;1.98;;;;;;;21.15;43.93;100993.69;143742;569;46010;-85
2021/05/04 03:43:03;;;;;;;13.30;1.70;;;;;;;20.98;44.37;100989.47;143735;598;46020;-84
2021/05/04 03:45:30;;;;;;;7.95;1.48;;;;;;;21.00;44.43;100997.41;143740;643;46018;-84
2021/05/04 03:47:57;;;;;;;8.05;2.05;;;;;;;20.96;44.75;101002.91;143740;588;46010;-80
2021/05/04 03:50:27;;;;;;;13.02;2.00;;;;;;;21.00;44.71;101018.75;143739;563;47012;-78
2021/05/04 03:52:56;;;;;;;11.50;2.58;;;;;;;20.87;45.37;101008.91;143737;564;47907;-80
2021/05/04 03:55:24;;;;;;;9.82;2.30;;;;;;;20.98;44.97;101008.16;143738;597;46018;-79
2021/05/04 03:57:51;;;;;;;11.23;2.10;;;;;;;21.02;45.12;101006.97;143737;653;46905;-80
2021/05/04 04:00:19;;;;;;;14.52;2.08;;;;;;;21.06;45.32;101004.97;143739;619;47013;-85
2021/05/04 04:02:46;;;;;;;7.78;1.58;;;;;;;21.03;45.33;101014.03;143737;563;46018;-88
2021/05/04 04:05:14;;;;;;;9.48;1.62;;;;;;;21.06;45.21;101018.31;143738;648;46010;-91
2021/05/04 04:07:41;;;;;;;8.73;1.98;;;;;;;21.08;45.30;101029.75;143741;604;46011;-88
2021/05/04 04:10:11;;;;;;;8.18;1.50;;;;;;;21.10;45.82;101019.81;143739;597;47012;-83
2021/05/04 04:12:40;;;;;;;10.20;1.60;;;;;;;21.10;45.81;101033.16;143739;594;46012;-79
2021/05/04 04:15:09;;;;;;;16.62;2.25;;;;;;;21.02;46.29;101028.34;143738;583;46019;-82
2021/05/04 04:17:36;;;;;;;11.43;1.83;;;;;;;21.02;45.88;101033.69;143738;581;46010;-81
2021/05/04 04:20:06;;;;;;;11.18;2.00;;;;;;;21.01;45.89;101036.44;143740;569;47012;-81
2021/05/04 04:22:34;;;;;;;12.57;2.08;;;;;;;21.03;46.22;101032.72;143737;572;46014;-82
2021/05/04 04:25:07;;;;;;;6.90;1.60;;;;;;;21.01;45.76;101037.31;143738;586;46012;-82
2021/05/04 04:27:34;;;;;;;12.20;1.90;;;;;;;21.04;46.18;101034.44;143738;600;46020;-82
2021/05/04 04:30:01;;;;;;;12.10;2.28;;;;;;;21.14;46.04;101045.34;143740;625;46016;-82
2021/05/04 04:32:28;;;;;;;6.53;2.08;;;;;;;21.22;45.72;101050.19;143737;602;47022;-84
2021/05/04 04:34:56;;;;;;;9.73;2.58;;;;;;;21.29;45.83;101044.31;143739;565;46018;-83
2021/05/04 04:37:23;;;;;;;12.60;2.72;;;;;;;21.34;45.71;101033.34;143739;590;46010;-84
2021/05/04 04:39:50;;;;;;;12.80;2.20;;;;;;;21.48;45.72;101035.88;143740;589;46018;-84
2021/05/04 04:42:18;;;;;;;12.68;2.50;;;;;;;21.53;46.64;101040.09;143739;663;46906;-83
2021/05/04 04:44:45;;;;;;;13.75;3.35;;;;;;;21.63;45.20;101039.34;143739;650;46011;-84
2021/05/04 04:47:12;;;;;;;13.62;2.70;;;;;;;21.72;45.22;101037.00;143740;590;46010;-90
2021/05/04 04:49:40;;;;;;;11.10;2.85;;;;;;;21.94;44.98;101036.38;143740;619;47012;-90
2021/05/04 04:52:08;;;;;;;10.38;2.53;;;;;;;22.13;44.51;101034.09;143738;604;46013;-86
2021/05/04 04:54:35;;;;;;;17.80;3.70;;;;;;;22.23;44.39;101023.56;143736;681;46010;-86
2021/05/04 04:57:03;;;;;;;21.33;4.47;;;;;;;22.39;44.20;101026.03;143741;586;46020;-88
2021/05/04 04:59:30;;;;;;;18.23;4.97;;;;;;;22.38;43.91;101039.50;143740;660;46011;-87
2021/05/04 05:01:57;;;;;;;17.67;3.50;;;;;;;22.51;44.13;101029.59;143738;602;46020;-85
2021/05/04 05:04:25;;;;;;;14.85;3.20;;;;;;;22.65;44.74;101042.00;143739;593;46018;-87
2021/05/04 05:06:52;;;;;;;10.90;2.83;;;;;;;22.81;44.00;101047.91;143738;587;46020;-87
2021/05/04 05:09:21;;;;;;;10.77;2.90;;;;;;;23.02;44.01;101036.56;143741;597;46016;-89
2021/05/04 05:17:02;;;;;;;11.65;2.60;;;;;;;23.69;41.43;101023.44;143745;463;45021;-92
2021/05/04 05:19:30;;;;;;;12.77;2.70;;;;;;;23.90;42.06;101012.91;143740;565;47012;-88
2021/05/04 05:21:58;;;;;;;13.43;2.28;;;;;;;24.06;42.13;101016.06;143740;618;46013;-87
2021/05/04 05:24:25;;;;;;;11.60;2.83;;;;;;;24.11;41.93;101016.53;143741;628;46010;-87
2021/05/04 05:26:53;;;;;;;10.30;1.98;;;;;;;24.03;41.74;101027.03;143741;630;46018;-86
2021/05/04 05:29:20;;;;;;;10.50;1.95;;;;;;;24.03;41.64;101032.41;143738;578;46019;-87
2021/05/04 05:31:47;;;;;;;8.25;1.60;;;;;;;24.21;40.53;101039.91;143739;700;46048;-86
2021/05/04 05:34:24;;;;;;;6.20;1.50;;;;;;;24.07;39.07;101041.03;143740;577;46909;-88
2021/05/04 05:36:51;;;;;;;9.20;1.92;;;;;;;23.99;39.46;101057.75;143740;686;47008;-89
2021/05/04 05:39:19;;;;;;;11.65;1.90;;;;;;;24.14;40.01;101069.94;143742;582;46020;-90
2021/05/04 05:41:46;;;;;;;11.90;1.75;;;;;;;24.30;39.85;101072.25;143738;585;46022;-86
2021/05/04 05:44:14;;;;;;;11.25;2.00;;;;;;;24.41;38.69;101070.50;143740;566;46019;-84
2021/05/04 05:46:43;;;;;;;10.38;2.03;;;;;;;24.40;39.04;101083.09;143745;570;45053;-87
2021/05/04 05:49:11;;;;;;;12.40;2.40;;;;;;;24.68;38.94;101088.91;143744;772;46020;-88
2021/05/04 05:51:39;;;;;;;13.00;2.05;;;;;;;24.86;38.79;101091.91;143740;663;46012;-87
2021/05/04 05:54:06;;;;;;;10.52;2.10;;;;;;;24.83;39.37;101086.81;143740;579;46018;-87
2021/05/04 05:56:33;;;;;;;11.23;2.12;;;;;;;24.88;38.98;101091.78;143740;600;46010;-86
2021/05/04 05:59:04;;;;;;;10.25;1.73;;;;;;;24.50;38.80;101067.09;143741;615;47008;-91
2021/05/04 06:01:31;;;;;;;9.07;1.55;;;;;;;24.43;35.41;101106.97;143739;566;46908;-88
2021/05/04 06:03:58;;;;;;;9.88;1.60;;;;;;;24.38;36.46;101108.34;143741;578;46010;-90
2021/05/04 06:06:26;;;;;;;9.98;2.10;;;;;;;24.30;37.85;101127.72;143736;643;47010;-86
2021/05/04 06:08:53;;;;;;;9.65;1.95;;;;;;;24.01;38.15;101128.19;143741;564;46020;-88
2021/05/04 06:11:20;;;;;;;7.00;1.67;;;;;;;23.95;37.68;101128.69;143739;635;46022;-89
2021/05/04 06:13:47;;;;;;;7.80;1.50;;;;;;;23.78;37.08;101111.19;143741;620;45019;-94
2021/05/04 06:16:14;;;;;;;8.65;1.70;;;;;;;23.74;37.34;101140.09;143740;565;46010;-85
2021/05/04 06:18:41;;;;;;;6.87;1.60;;;;;;;24.02;37.99;101162.09;143740;565;46018;-86
2021/05/04 06:21:11;;;;;;;9.20;1.50;;;;;;;24.01;37.38;101160.38;143736;651;46019;-86
2021/05/04 06:23:38;;;;;;;9.32;2.08;;;;;;;24.17;37.82;101168.09;143741;621;46012;-85
2021/05/04 06:26:05;;;;;;;6.85;1.62;;;;;;;23.97;38.38;101169.63;143742;570;46018;-87
2021/05/04 06:28:33;;;;;;;6.90;1.90;;;;;;;24.06;39.35;101173.41;143743;634;47012;-86
2021/05/04 06:31:06;;;;;;;10.45;1.90;;;;;;;24.08;40.12;101171.50;143739;590;46021;-92
2021/05/04 06:33:33;;;;;;;12.23;1.80;;;;;;;24.27;40.18;101170.91;143741;593;45018;-91
2021/05/04 06:36:00;;;;;;;8.70;1.55;;;;;;;24.55;39.43;101166.88;143742;618;45021;-87
2021/05/04 06:38:38;;;;;;;5.12;1.55;;;;;;;24.61;38.74;101146.75;143742;598;46010;-91
2021/05/04 06:41:05;;;;;;;9.52;1.70;;;;;;;25.05;38.55;101160.22;143738;591;46020;-85
2021/05/04 06:43:32;;;;;;;7.10;1.95;;;;;;;25.10;38.34;101155.34;143739;580;46012;-82
2021/05/04 06:46:02;;;;;;;8.50;2.30;;;;;;;25.23;38.27;101152.47;143737;565;47011;-88
2021/05/04 06:48:30;;;;;;;7.93;1.67;;;;;;;25.29;38.30;101152.81;143742;572;46018;-86
2021/05/04 06:50:57;;;;;;;7.55;1.52;;;;;;;25.54;37.94;101155.31;143740;594;46019;-83
2021/05/04 06:53:26;;;;;;;7.75;1.42;;;;;;;25.71;36.45;101143.94;143742;607;47012;-79
2021/05/04 06:55:53;;;;;;;6.25;1.45;;;;;;;25.67;36.26;101151.44;143741;588;47010;-81
2021/05/04 06:58:20;;;;;;;6.60;1.30;;;;;;;25.78;36.56;101141.59;143743;636;46017;-79
2021/05/04 07:00:47;;;;;;;11.30;2.20;;;;;;;25.83;35.76;101139.38;143740;595;46018;-80
2021/05/04 07:03:15;;;;;;;4.62;1.30;;;;;;;25.83;33.77;101124.09;143741;692;46012;-81
2021/05/04 07:05:42;;;;;;;7.10;1.48;;;;;;;26.13;35.74;101125.13;143741;566;46011;-80
2021/05/04 07:08:09;;;;;;;5.60;1.80;;;;;;;26.12;35.13;101123.44;143743;635;45038;-80
2021/05/04 07:10:36;;;;;;;8.13;1.95;;;;;;;26.26;34.60;101127.59;143740;615;46018;-80
2021/05/04 07:13:04;;;;;;;7.43;2.12;;;;;;;26.22;34.21;101144.12;143743;607;46012;-80
2021/05/04 07:15:31;;;;;;;9.10;2.05;;;;;;;26.23;34.90;101135.06;143740;733;46012;-89
2021/05/04 07:17:58;;;;;;;9.50;1.37;;;;;;;26.12;35.06;101142.25;143742;599;47018;-91
2021/05/04 07:20:25;;;;;;;8.05;1.50;;;;;;;25.91;35.08;101147.62;143740;570;46020;-92
2021/05/04 07:22:55;;;;;;;10.30;1.85;;;;;;;25.66;36.97;101160.50;143741;571;46010;-86
2021/05/04 07:25:22;;;;;;;7.78;1.65;;;;;;;25.67;38.45;101155.94;143742;592;46010;-89
2021/05/04 07:27:52;;;;;;;8.13;1.35;;;;;;;25.75;37.65;101153.50;143743;714;46017;-89
2021/05/04 07:30:20;;;;;;;9.05;1.52;;;;;;;25.96;37.35;101140.00;143738;565;47021;-92
2021/05/04 07:32:47;;;;;;;8.60;1.70;;;;;;;25.97;37.90;101146.25;143738;631;46018;-90
2021/05/04 07:35:14;;;;;;;7.45;1.77;;;;;;;26.14;37.81;101153.72;143742;623;46019;-87
2021/05/04 07:37:41;;;;;;;6.57;1.42;;;;;;;26.22;37.49;101155.75;143743;650;47012;-90
2021/05/04 07:40:10;;;;;;;8.35;1.55;;;;;;;26.40;36.77;101153.28;143740;631;46020;-91
2021/05/04 07:42:37;;;;;;;8.70;1.60;;;;;;;26.47;36.90;101157.12;143740;585;46909;-91
2021/05/04 07:45:06;;;;;;;8.82;1.62;;;;;;;26.54;35.27;101154.75;143744;565;46010;-89
2021/05/04 07:47:33;;;;;;;74.03;4.05;;;;;;;26.78;34.64;101156.28;143745;604;46018;-89
2021/05/04 07:50:00;;;;;;;9.75;1.70;;;;;;;27.02;35.35;101154.06;143738;609;47020;-90
2021/05/04 07:52:27;;;;;;;11.02;1.87;;;;;;;27.03;34.45;101154.91;143741;604;46018;-91
2021/05/04 07:54:54;;;;;;;7.85;1.60;;;;;;;26.77;34.40;101158.09;143741;569;47010;-89
2021/05/04 07:57:22;;;;;;;12.60;2.08;;;;;;;26.60;34.80;101153.34;143742;578;46018;-91
2021/05/04 07:59:51;;;;;;;9.85;1.67;;;;;;;26.48;35.28;101158.84;143737;595;47012;-83
2021/05/04 08:02:18;;;;;;;6.10;1.73;;;;;;;26.33;35.55;101150.28;143740;563;46018;-89
2021/05/04 08:04:46;;;;;;;7.53;1.50;;;;;;;26.21;35.63;101147.81;143739;587;47010;-83
2021/05/04 08:07:13;;;;;;;10.70;1.58;;;;;;;26.06;35.98;101145.47;143741;619;46018;-83
2021/05/04 08:09:41;;;;;;;9.35;1.60;;;;;;;26.20;36.06;101135.34;143739;625;46020;-90
2021/05/04 08:12:09;;;;;;;8.50;1.52;;;;;;;26.21;35.09;101143.28;143739;567;46018;-91
2021/05/04 08:14:36;;;;;;;8.13;1.60;;;;;;;26.31;35.12;101138.81;143742;706;46008;-87
2021/05/04 08:17:03;;;;;;;10.23;2.17;;;;;;;26.28;34.67;101143.59;143742;565;47010;-89
2021/05/04 08:19:30;;;;;;;8.23;1.80;;;;;;;26.17;34.68;101140.00;143737;624;46019;-85
2021/05/04 08:21:57;;;;;;;8.15;1.70;;;;;;;26.01;34.78;101142.28;143739;622;46019;-89
2021/05/04 08:24:25;;;;;;;9.90;1.80;;;;;;;26.02;35.72;101149.41;143737;634;47010;-82
2021/05/04 08:26:52;;;;;;;6.70;1.60;;;;;;;26.13;35.67;101140.41;143741;584;47012;-87
2021/05/04 08:29:19;;;;;;;8.77;1.60;;;;;;;26.28;35.85;101138.22;143738;575;47021;-89
2021/05/04 08:31:46;;;;;;;9.27;1.85;;;;;;;26.08;36.77;101138.13;143743;608;46012;-83
2021/05/04 08:34:13;;;;;;;6.65;1.50;;;;;;;26.10;36.62;101146.06;143741;591;46019;-88
2021/05/04 08:36:40;;;;;;;7.57;1.77;;;;;;;26.12;37.33;101144.97;143741;583;46018;-89
2021/05/04 08:39:08;;;;;;;9.32;2.12;;;;;;;26.12;38.59;101136.88;143737;581;47020;-89
2021/05/04 08:41:35;;;;;;;6.97;2.00;;;;;;;26.03;38.29;101137.69;143738;622;46019;-76
2021/05/04 08:44:04;;;;;;;9.98;2.10;;;;;;;25.89;37.12;101138.84;143739;625;45906;-84
2021/05/04 08:46:36;;;;;;;8.95;1.90;;;;;;;25.78;36.80;101137.09;143735;580;48010;-87
2021/05/04 08:49:04;;;;;;;10.50;3.00;;;;;;;25.84;37.82;101127.63;143737;578;46020;-84
2021/05/04 08:51:34;;;;;;;8.43;2.60;;;;;;;25.96;37.60;101118.50;143739;570;47012;-86
2021/05/04 08:54:02;;;;;;;10.02;2.30;;;;;;;25.75;40.73;101123.91;143740;616;47010;-88
2021/05/04 08:56:29;;;;;;;7.75;2.05;;;;;;;25.82;40.98;101124.22;143742;571;46010;-91
2021/05/04 08:58:56;;;;;;;9.95;2.28;;;;;;;25.74;39.48;101124.03;143738;563;47021;-84
2021/05/04 09:01:24;;;;;;;7.95;2.20;;;;;;;25.66;40.27;101130.06;143740;633;46018;-90
2021/05/04 09:03:55;;;;;;;5.78;2.28;;;;;;;25.81;39.13;101152.09;143738;589;47010;-91
2021/05/04 09:06:41;;;;;;;7.12;2.17;;;;;;;26.04;38.68;101155.53;143741;607;47010;-89
2021/05/04 09:12:38;;;;;;;10.23;2.30;;;;;;;26.01;39.05;101171.88;143736;564;47008;-86
2021/05/04 09:21:39;;;;;;;11.70;4.85;;;;;;;25.41;38.84;101161.72;143736;594;48021;-90
2021/05/04 09:24:27;;;;;;;11.32;3.83;;;;;;;25.34;37.62;101149.75;143742;609;46010;-84
2021/05/04 09:27:06;;;;;;;11.73;5.50;;;;;;;25.22;38.10;101140.00;143739;592;46031;-84
2021/05/04 09:29:58;;;;;;;9.18;2.72;;;;;;;25.40;37.41;101143.88;143742;604;47012;-90
2021/05/04 09:32:28;;;;;;;11.70;4.78;;;;;;;25.34;37.21;101139.88;143739;563;47012;-85
2021/05/04 09:35:05;;;;;;;9.70;3.80;;;;;;;25.37;37.66;101130.72;143743;603;45019;-87
2021/05/04 09:37:43;;;;;;;11.95;2.85;;;;;;;25.84;36.97;101125.78;143741;816;46012;-87
2021/05/04 09:40:28;;;;;;;14.90;4.53;;;;;;;25.80;35.79;101121.66;143742;569;46010;-88
2021/05/04 09:43:24;;;;;;;17.70;5.90;;;;;;;25.69;35.50;101119.03;143737;579;47012;-83
2021/05/04 09:45:59;;;;;;;10.07;3.65;;;;;;;25.84;35.52;101124.94;143738;573;47012;-87
2021/05/04 09:48:32;;;;;;;17.08;5.05;;;;;;;26.13;35.86;101119.72;143741;611;46027;-91
2021/05/04 09:51:14;;;;;;;9.25;2.70;;;;;;;25.83;34.84;101117.84;143743;587;47012;-84
2021/05/04 09:54:05;;;;;;;5.53;2.20;;;;;;;25.88;34.52;101121.00;143735;611;47020;-87
2021/05/04 09:56:35;;;;;;;11.32;2.92;;;;;;;25.88;34.82;101106.72;143740;641;47010;-87
2021/05/04 09:59:03;;;;;;;9.73;3.30;;;;;;;26.03;34.89;101094.63;143739;606;47010;-93
2021/05/04 10:01:30;;;;;;;10.63;2.25;;;;;;;26.27;34.13;101088.06;143741;580;47010;-89
2021/05/04 10:04:00;;;;;;;9.38;2.00;;;;;;;26.22;33.98;101101.94;143739;600;46020;-87
2021/05/04 10:06:28;;;;;;;11.93;5.43;;;;;;;26.34;34.15;101095.47;143741;600;46018;-89
2021/05/04 10:08:56;;;;;;;9.85;2.78;;;;;;;26.23;33.49;101083.94;143739;614;46020;-86
2021/05/04 10:11:24;;;;;;;9.95;2.97;;;;;;;26.29;34.03;101086.09;143741;586;46018;-89
2021/05/04 10:13:56;;;;;;;5.68;2.20;;;;;;;26.20;34.07;101089.59;143738;629;47014;-83
2021/05/04 10:16:29;;;;;;;9.85;3.00;;;;;;;25.96;33.49;101101.53;143739;596;47010;-83
2021/05/04 10:19:39;;;;;;;8.00;3.08;;;;;;;26.24;34.40;101101.81;143739;615;46021;-83
2021/05/04 10:22:06;;;;;;;6.65;1.95;;;;;;;26.38;33.07;101101.44;143741;565;47012;-83
2021/05/04 10:24:42;;;;;;;9.32;2.37;;;;;;;26.28;33.79;101101.37;143740;596;46020;-83
2021/05/04 10:27:10;;;;;;;7.47;2.05;;;;;;;26.38;33.49;101101.44;143740;641;46018;-83
2021/05/04 10:29:39;;;;;;;8.00;1.90;;;;;;;26.60;33.21;101096.81;143738;637;47012;-82
2021/05/04 10:32:30;;;;;;;11.48;2.05;;;;;;;26.63;33.02;101094.69;143739;580;47010;-83
2021/05/04 10:34:57;;;;;;;6.75;1.90;;;;;;;26.64;32.50;101087.44;143738;677;46019;-80
2021/05/04 10:37:32;;;;;;;7.05;2.17;;;;;;;26.74;32.32;101084.84;143741;564;46010;-82
2021/05/04 10:39:59;;;;;;;8.00;1.95;;;;;;;26.47;32.62;101083.59;143740;606;46020;-76
2021/05/04 10:42:40;;;;;;;6.12;1.98;;;;;;;26.39;33.22;101084.28;143741;585;48013;-74
2021/05/04 10:45:13;;;;;;;9.38;1.95;;;;;;;26.37;32.33;101099.72;143740;599;46012;-75
2021/05/04 10:47:50;;;;;;;8.60;1.75;;;;;;;26.49;32.95;101090.56;143742;586;46018;-74
2021/05/04 10:50:48;;;;;;;5.60;1.92;;;;;;;26.52;32.75;101084.87;143739;613;46021;-74
2021/05/04 10:53:17;;;;;;;5.87;1.60;;;;;;;26.78;32.57;101094.34;143741;571;47012;-74
2021/05/04 10:56:15;;;;;;;6.35;1.80;;;;;;;26.84;31.26;101097.28;143738;616;47013;-74
2021/05/04 10:58:48;;;;;;;9.95;2.00;;;;;;;26.48;31.58;101096.09;143741;609;47008;-75
2021/05/04 11:01:17;;;;;;;7.85;2.30;;;;;;;26.45;31.62;101094.50;143741;576;46020;-74
2021/05/04 11:03:53;;;;;;;11.77;2.08;;;;;;;26.38;31.60;101096.06;143740;607;47010;-75
2021/05/04 11:06:44;;;;;;;9.40;1.95;;;;;;;26.23;32.19;101048.97;143741;575;46012;-74
2021/05/04 11:09:12;;;;;;;8.00;1.70;;;;;;;26.42;30.81;101085.84;143740;627;47010;-74
2021/05/04 11:11:42;;;;;;;7.53;1.70;;;;;;;26.57;32.06;101072.84;143740;581;47010;-73
2021/05/04 11:14:25;;;;;;;6.25;1.70;;;;;;;26.41;30.96;101071.56;143739;602;47020;-74
2021/05/04 11:17:16;;;;;;;12.18;2.10;;;;;;;26.50;31.22;101065.34;143737;585;47020;-74
2021/05/04 11:19:44;;;;;;;7.55;1.90;;;;;;;26.81;31.58;101059.88;143738;603;46018;-74
2021/05/04 11:22:19;;;;;;;6.22;1.80;;;;;;;26.94;31.80;101061.44;143737;573;47020;-74
2021/05/04 11:24:54;;;;;;;6.78;1.40;;;;;;;26.75;30.13;101067.66;143740;628;47012;-75
2021/05/04 11:27:25;;;;;;;7.43;1.62;;;;;;;26.72;30.61;101071.47;143734;630;46019;-74
2021/05/04 11:29:56;;;;;;;5.78;1.58;;;;;;;26.84;30.50;101061.44;143739;588;47012;-74
2021/05/04 11:32:44;;;;;;;6.07;1.73;;;;;;;27.04;30.32;101067.69;143739;609;46020;-74
2021/05/04 11:35:14;;;;;;;8.43;2.10;;;;;;;26.71;30.59;101069.81;143738;575;47012;-74
2021/05/04 11:37:45;;;;;;;9.55;1.95;;;;;;;26.76;30.38;101067.50;143735;612;47020;-74
2021/05/04 11:40:24;;;;;;;11.55;2.72;;;;;;;26.64;30.51;101071.28;143737;572;47013;-82
2021/05/04 11:42:57;;;;;;;8.43;1.80;;;;;;;26.56;30.71;101076.53;143738;585;47010;-79
2021/05/04 11:45:32;;;;;;;8.60;2.37;;;;;;;26.59;31.12;101073.56;143738;582;47012;-79
2021/05/04 11:48:10;;;;;;;7.53;2.35;;;;;;;26.87;30.87;101069.22;143736;577;46020;-81